sensor_id;sensor_type;location;lat;lon;timestamp;pressure;altitude;pressure_sealevel;temperature;humidity
39891;BME280;25564;53.312;9.790;2024-02-26T00:02:30;99935.78;;;2.01;83.02
39891;BME280;25564;53.312;9.790;2024-02-26T00:05:06;99934.50;;;1.94;83.25
39891;BME280;25564;53.312;9.790;2024-02-26T00:07:38;99933.03;;;1.90;83.57
39891;BME280;25564;53.312;9.790;2024-02-26T00:10:10;99940.97;;;1.85;83.46
39891;BME280;25564;53.312;9.790;2024-02-26T00:12:42;99946.31;;;1.81;82.98
39891;BME280;25564;53.312;9.790;2024-02-26T00:15:13;99947.16;;;1.81;82.99
39891;BME280;25564;53.312;9.790;2024-02-26T00:17:45;99938.75;;;1.79;83.29
39891;BME280;25564;53.312;9.790;2024-02-26T00:20:16;99938.75;;;1.79;83.27
39891;BME280;25564;53.312;9.790;2024-02-26T00:22:48;99939.00;;;1.75;82.88
39891;BME280;25564;53.312;9.790;2024-02-26T00:25:19;99944.28;;;1.72;82.34
39891;BME280;25564;53.312;9.790;2024-02-26T00:27:51;99944.63;;;1.66;82.90
39891;BME280;25564;53.312;9.790;2024-02-26T00:30:23;99938.03;;;1.62;83.32
39891;BME280;25564;53.312;9.790;2024-02-26T00:32:56;99932.34;;;1.57;82.85
39891;BME280;25564;53.312;9.790;2024-02-26T00:35:27;99936.06;;;1.51;82.77
39891;BME280;25564;53.312;9.790;2024-02-26T00:37:58;99936.22;;;1.48;82.44
39891;BME280;25564;53.312;9.790;2024-02-26T00:40:32;99933.13;;;1.43;83.40
39891;BME280;25564;53.312;9.790;2024-02-26T00:43:03;99926.06;;;1.32;82.77
39891;BME280;25564;53.312;9.790;2024-02-26T00:45:35;99933.22;;;1.26;82.61
39891;BME280;25564;53.312;9.790;2024-02-26T00:48:06;99926.78;;;1.19;82.92
39891;BME280;25564;53.312;9.790;2024-02-26T00:50:40;99933.06;;;1.13;82.03
39891;BME280;25564;53.312;9.790;2024-02-26T00:53:11;99933.41;;;1.07;82.48
39891;BME280;25564;53.312;9.790;2024-02-26T00:55:43;99933.63;;;1.03;82.57
39891;BME280;25564;53.312;9.790;2024-02-26T00:58:14;99941.47;;;1.00;82.60
39891;BME280;25564;53.312;9.790;2024-02-26T01:00:45;99940.81;;;0.96;82.40
39891;BME280;25564;53.312;9.790;2024-02-26T01:03:17;99941.78;;;0.94;82.34
39891;BME280;25564;53.312;9.790;2024-02-26T01:05:49;99944.66;;;0.88;82.44
39891;BME280;25564;53.312;9.790;2024-02-26T01:08:21;99938.16;;;0.82;82.72
39891;BME280;25564;53.312;9.790;2024-02-26T01:10:52;99942.03;;;0.73;82.26
39891;BME280;25564;53.312;9.790;2024-02-26T01:13:23;99939.69;;;0.69;81.95
39891;BME280;25564;53.312;9.790;2024-02-26T01:15:55;99935.84;;;0.62;82.19
39891;BME280;25564;53.312;9.790;2024-02-26T01:18:26;99941.19;;;0.57;81.83
39891;BME280;25564;53.312;9.790;2024-02-26T01:20:58;99942.16;;;0.55;82.34
39891;BME280;25564;53.312;9.790;2024-02-26T01:23:30;99937.19;;;0.52;82.16
39891;BME280;25564;53.312;9.790;2024-02-26T01:26:01;99930.28;;;0.54;82.86
39891;BME280;25564;53.312;9.790;2024-02-26T01:28:34;99925.88;;;0.57;82.72
39891;BME280;25564;53.312;9.790;2024-02-26T01:31:05;99924.06;;;0.59;83.07
39891;BME280;25564;53.312;9.790;2024-02-26T01:33:39;99924.88;;;0.60;82.57
39891;BME280;25564;53.312;9.790;2024-02-26T01:36:10;99932.69;;;0.57;82.78
39891;BME280;25564;53.312;9.790;2024-02-26T01:38:41;99923.06;;;0.62;83.40
39891;BME280;25564;53.312;9.790;2024-02-26T01:41:13;99928.66;;;0.68;82.96
39891;BME280;25564;53.312;9.790;2024-02-26T01:43:45;99926.78;;;0.72;83.45
39891;BME280;25564;53.312;9.790;2024-02-26T01:46:17;99932.72;;;0.72;83.20
39891;BME280;25564;53.312;9.790;2024-02-26T01:48:49;99935.34;;;0.71;83.38
39891;BME280;25564;53.312;9.790;2024-02-26T01:51:22;99930.66;;;0.63;83.22
39891;BME280;25564;53.312;9.790;2024-02-26T01:53:54;99930.03;;;0.58;82.98
39891;BME280;25564;53.312;9.790;2024-02-26T01:56:25;99940.34;;;0.57;83.25
39891;BME280;25564;53.312;9.790;2024-02-26T01:59:02;99937.78;;;0.57;83.46
39891;BME280;25564;53.312;9.790;2024-02-26T02:01:33;99936.31;;;0.53;83.12
39891;BME280;25564;53.312;9.790;2024-02-26T02:04:05;99935.38;;;0.54;83.31
39891;BME280;25564;53.312;9.790;2024-02-26T02:06:38;99929.47;;;0.53;83.22
39891;BME280;25564;53.312;9.790;2024-02-26T02:09:11;99930.47;;;0.51;83.09
39891;BME280;25564;53.312;9.790;2024-02-26T02:11:42;99931.34;;;0.50;83.23
39891;BME280;25564;53.312;9.790;2024-02-26T02:14:15;99929.53;;;0.52;83.32
39891;BME280;25564;53.312;9.790;2024-02-26T02:16:47;99931.44;;;0.48;82.97
39891;BME280;25564;53.312;9.790;2024-02-26T02:19:18;99935.78;;;0.46;82.84
39891;BME280;25564;53.312;9.790;2024-02-26T02:21:50;99942.69;;;0.44;83.16
39891;BME280;25564;53.312;9.790;2024-02-26T02:24:21;99946.22;;;0.42;83.16
39891;BME280;25564;53.312;9.790;2024-02-26T02:26:53;99947.19;;;0.39;83.00
39891;BME280;25564;53.312;9.790;2024-02-26T02:29:25;99946.41;;;0.39;83.05
39891;BME280;25564;53.312;9.790;2024-02-26T02:31:59;99943.91;;;0.37;83.29
39891;BME280;25564;53.312;9.790;2024-02-26T02:34:31;99948.69;;;0.43;82.94
39891;BME280;25564;53.312;9.790;2024-02-26T02:37:03;99954.63;;;0.44;83.05
39891;BME280;25564;53.312;9.790;2024-02-26T02:39:34;99951.31;;;0.42;82.91
39891;BME280;25564;53.312;9.790;2024-02-26T02:42:06;99958.09;;;0.43;83.58
39891;BME280;25564;53.312;9.790;2024-02-26T02:44:37;99953.97;;;0.40;83.38
39891;BME280;25564;53.312;9.790;2024-02-26T02:47:10;99948.94;;;0.39;83.46
39891;BME280;25564;53.312;9.790;2024-02-26T02:49:41;99942.34;;;0.35;83.59
39891;BME280;25564;53.312;9.790;2024-02-26T02:52:13;99950.06;;;0.33;83.10
39891;BME280;25564;53.312;9.790;2024-02-26T02:54:44;99951.78;;;0.33;83.07
39891;BME280;25564;53.312;9.790;2024-02-26T02:57:18;99954.66;;;0.27;83.14
39891;BME280;25564;53.312;9.790;2024-02-26T02:59:50;99965.03;;;0.24;82.63
39891;BME280;25564;53.312;9.790;2024-02-26T03:02:21;99956.66;;;0.20;83.39
39891;BME280;25564;53.312;9.790;2024-02-26T03:04:52;99959.31;;;0.19;82.90
39891;BME280;25564;53.312;9.790;2024-02-26T03:07:24;99959.16;;;0.22;82.99
39891;BME280;25564;53.312;9.790;2024-02-26T03:09:56;99956.63;;;0.22;83.01
39891;BME280;25564;53.312;9.790;2024-02-26T03:12:29;99968.22;;;0.27;83.12
39891;BME280;25564;53.312;9.790;2024-02-26T03:15:01;99963.78;;;0.31;83.13
39891;BME280;25564;53.312;9.790;2024-02-26T03:17:34;99959.38;;;0.34;83.54
39891;BME280;25564;53.312;9.790;2024-02-26T03:20:06;99954.34;;;0.33;83.12
39891;BME280;25564;53.312;9.790;2024-02-26T03:22:39;99962.16;;;0.30;82.97
39891;BME280;25564;53.312;9.790;2024-02-26T03:25:11;99961.63;;;0.23;83.07
39891;BME280;25564;53.312;9.790;2024-02-26T03:27:42;99968.00;;;0.15;82.37
39891;BME280;25564;53.312;9.790;2024-02-26T03:30:14;99973.41;;;0.09;82.51
39891;BME280;25564;53.312;9.790;2024-02-26T03:32:45;99978.53;;;0.09;82.56
39891;BME280;25564;53.312;9.790;2024-02-26T03:35:18;99972.59;;;0.08;83.26
39891;BME280;25564;53.312;9.790;2024-02-26T03:37:50;99983.63;;;0.09;83.02
39891;BME280;25564;53.312;9.790;2024-02-26T03:40:22;99981.19;;;0.06;82.99
39891;BME280;25564;53.312;9.790;2024-02-26T03:42:55;99990.53;;;0.07;83.08
39891;BME280;25564;53.312;9.790;2024-02-26T03:45:28;99989.63;;;0.08;82.96
39891;BME280;25564;53.312;9.790;2024-02-26T03:48:00;99992.84;;;0.11;83.08
39891;BME280;25564;53.312;9.790;2024-02-26T03:50:31;100005.38;;;0.16;83.88
39891;BME280;25564;53.312;9.790;2024-02-26T03:53:03;100002.75;;;0.17;83.40
39891;BME280;25564;53.312;9.790;2024-02-26T03:55:35;100005.38;;;0.16;83.54
39891;BME280;25564;53.312;9.790;2024-02-26T03:58:06;100010.53;;;0.14;83.47
39891;BME280;25564;53.312;9.790;2024-02-26T04:00:38;100020.81;;;0.13;83.40
39891;BME280;25564;53.312;9.790;2024-02-26T04:03:10;100018.25;;;0.13;82.92
39891;BME280;25564;53.312;9.790;2024-02-26T04:05:42;100019.97;;;0.12;83.31
39891;BME280;25564;53.312;9.790;2024-02-26T04:08:13;100033.66;;;0.11;83.09
39891;BME280;25564;53.312;9.790;2024-02-26T04:10:45;100032.06;;;0.09;83.07
39891;BME280;25564;53.312;9.790;2024-02-26T04:13:17;100037.47;;;0.03;83.02
39891;BME280;25564;53.312;9.790;2024-02-26T04:15:49;100044.66;;;-0.05;82.87
39891;BME280;25564;53.312;9.790;2024-02-26T04:18:20;100049.13;;;-0.11;82.49
39891;BME280;25564;53.312;9.790;2024-02-26T04:20:52;100043.28;;;-0.13;82.71
39891;BME280;25564;53.312;9.790;2024-02-26T04:23:24;100042.53;;;-0.15;82.71
39891;BME280;25564;53.312;9.790;2024-02-26T04:25:55;100046.00;;;-0.16;82.61
39891;BME280;25564;53.312;9.790;2024-02-26T04:28:27;100040.16;;;-0.18;82.63
39891;BME280;25564;53.312;9.790;2024-02-26T04:31:00;100043.50;;;-0.17;82.32
39891;BME280;25564;53.312;9.790;2024-02-26T04:33:34;100049.56;;;-0.20;82.38
39891;BME280;25564;53.312;9.790;2024-02-26T04:36:05;100057.44;;;-0.24;82.77
39891;BME280;25564;53.312;9.790;2024-02-26T04:38:43;100044.91;;;-0.29;82.44
39891;BME280;25564;53.312;9.790;2024-02-26T04:41:15;100059.50;;;-0.32;82.11
39891;BME280;25564;53.312;9.790;2024-02-26T04:43:46;100067.22;;;-0.34;82.72
39891;BME280;25564;53.312;9.790;2024-02-26T04:46:18;100066.38;;;-0.34;82.85
39891;BME280;25564;53.312;9.790;2024-02-26T04:48:49;100071.47;;;-0.34;83.13
39891;BME280;25564;53.312;9.790;2024-02-26T04:51:22;100069.00;;;-0.36;82.94
39891;BME280;25564;53.312;9.790;2024-02-26T04:53:53;100073.97;;;-0.33;82.91
39891;BME280;25564;53.312;9.790;2024-02-26T04:56:25;100062.94;;;-0.33;83.12
39891;BME280;25564;53.312;9.790;2024-02-26T04:58:56;100071.44;;;-0.33;82.80
39891;BME280;25564;53.312;9.790;2024-02-26T05:01:28;100075.63;;;-0.32;82.81
39891;BME280;25564;53.312;9.790;2024-02-26T05:04:00;100079.00;;;-0.31;82.65
39891;BME280;25564;53.312;9.790;2024-02-26T05:06:31;100074.72;;;-0.31;83.15
39891;BME280;25564;53.312;9.790;2024-02-26T05:09:03;100080.59;;;-0.29;82.66
39891;BME280;25564;53.312;9.790;2024-02-26T05:11:35;100081.34;;;-0.27;82.72
39891;BME280;25564;53.312;9.790;2024-02-26T05:14:06;100083.13;;;-0.29;82.82
39891;BME280;25564;53.312;9.790;2024-02-26T05:16:37;100088.81;;;-0.24;82.91
39891;BME280;25564;53.312;9.790;2024-02-26T05:19:09;100082.84;;;-0.23;83.33
39891;BME280;25564;53.312;9.790;2024-02-26T05:21:41;100088.56;;;-0.18;83.39
39891;BME280;25564;53.312;9.790;2024-02-26T05:24:14;100085.09;;;-0.17;83.09
39891;BME280;25564;53.312;9.790;2024-02-26T05:26:46;100080.84;;;-0.16;83.38
39891;BME280;25564;53.312;9.790;2024-02-26T05:29:18;100096.81;;;-0.13;83.74
39891;BME280;25564;53.312;9.790;2024-02-26T05:31:49;100098.47;;;-0.12;83.19
39891;BME280;25564;53.312;9.790;2024-02-26T05:34:21;100100.88;;;-0.09;83.88
39891;BME280;25564;53.312;9.790;2024-02-26T05:36:53;100104.13;;;-0.05;83.38
39891;BME280;25564;53.312;9.790;2024-02-26T05:39:25;100102.38;;;-0.04;83.50
39891;BME280;25564;53.312;9.790;2024-02-26T05:41:56;100099.81;;;-0.04;83.60
39891;BME280;25564;53.312;9.790;2024-02-26T05:44:27;100098.72;;;0.01;83.66
39891;BME280;25564;53.312;9.790;2024-02-26T05:47:00;100104.50;;;0.05;84.01
39891;BME280;25564;53.312;9.790;2024-02-26T05:49:35;100104.38;;;0.08;83.54
39891;BME280;25564;53.312;9.790;2024-02-26T05:52:06;100109.31;;;0.11;83.35
39891;BME280;25564;53.312;9.790;2024-02-26T05:54:38;100107.50;;;0.13;83.70
39891;BME280;25564;53.312;9.790;2024-02-26T05:57:09;100111.50;;;0.18;83.95
39891;BME280;25564;53.312;9.790;2024-02-26T05:59:40;100117.22;;;0.23;84.25
39891;BME280;25564;53.312;9.790;2024-02-26T06:02:12;100119.63;;;0.26;83.83
39891;BME280;25564;53.312;9.790;2024-02-26T06:04:44;100119.47;;;0.29;84.00
39891;BME280;25564;53.312;9.790;2024-02-26T06:07:17;100121.81;;;0.34;83.76
39891;BME280;25564;53.312;9.790;2024-02-26T06:09:49;100126.78;;;0.37;83.65
39891;BME280;25564;53.312;9.790;2024-02-26T06:12:20;100118.94;;;0.40;83.55
39891;BME280;25564;53.312;9.790;2024-02-26T06:14:52;100129.78;;;0.45;83.86
39891;BME280;25564;53.312;9.790;2024-02-26T06:17:24;100135.63;;;0.47;83.77
39891;BME280;25564;53.312;9.790;2024-02-26T06:19:56;100133.75;;;0.50;83.62
39891;BME280;25564;53.312;9.790;2024-02-26T06:22:29;100127.69;;;0.53;83.98
39891;BME280;25564;53.312;9.790;2024-02-26T06:25:00;100136.09;;;0.55;83.98
39891;BME280;25564;53.312;9.790;2024-02-26T06:27:32;100134.19;;;0.58;84.44
39891;BME280;25564;53.312;9.790;2024-02-26T06:30:04;100139.81;;;0.65;84.03
39891;BME280;25564;53.312;9.790;2024-02-26T06:32:37;100140.56;;;0.67;84.35
39891;BME280;25564;53.312;9.790;2024-02-26T06:35:08;100143.66;;;0.73;84.08
39891;BME280;25564;53.312;9.790;2024-02-26T06:37:42;100139.22;;;0.77;84.35
39891;BME280;25564;53.312;9.790;2024-02-26T06:40:14;100140.66;;;0.83;84.38
39891;BME280;25564;53.312;9.790;2024-02-26T06:42:46;100145.56;;;0.87;84.53
39891;BME280;25564;53.312;9.790;2024-02-26T06:45:20;100139.44;;;0.90;84.65
39891;BME280;25564;53.312;9.790;2024-02-26T06:47:51;100153.78;;;0.92;84.37
39891;BME280;25564;53.312;9.790;2024-02-26T06:50:23;100152.72;;;0.96;83.96
39891;BME280;25564;53.312;9.790;2024-02-26T06:52:54;100149.94;;;1.01;84.20
39891;BME280;25564;53.312;9.790;2024-02-26T06:55:26;100161.56;;;1.06;84.23
39891;BME280;25564;53.312;9.790;2024-02-26T06:57:57;100155.50;;;1.09;84.37
39891;BME280;25564;53.312;9.790;2024-02-26T07:00:29;100155.28;;;1.13;84.64
39891;BME280;25564;53.312;9.790;2024-02-26T07:03:00;100163.53;;;1.18;84.66
39891;BME280;25564;53.312;9.790;2024-02-26T07:05:32;100173.44;;;1.24;83.81
39891;BME280;25564;53.312;9.790;2024-02-26T07:08:04;100167.28;;;1.28;84.34
39891;BME280;25564;53.312;9.790;2024-02-26T07:10:35;100172.16;;;1.33;84.61
39891;BME280;25564;53.312;9.790;2024-02-26T07:13:07;100179.50;;;1.39;84.30
39891;BME280;25564;53.312;9.790;2024-02-26T07:15:38;100185.19;;;1.44;84.59
39891;BME280;25564;53.312;9.790;2024-02-26T07:18:10;100184.06;;;1.49;84.75
39891;BME280;25564;53.312;9.790;2024-02-26T07:20:42;100187.94;;;1.57;84.47
39891;BME280;25564;53.312;9.790;2024-02-26T07:23:14;100185.97;;;1.62;84.23
39891;BME280;25564;53.312;9.790;2024-02-26T07:25:45;100184.09;;;1.65;84.42
39891;BME280;25564;53.312;9.790;2024-02-26T07:28:19;100188.97;;;1.70;84.32
39891;BME280;25564;53.312;9.790;2024-02-26T07:30:50;100203.31;;;1.72;85.00
39891;BME280;25564;53.312;9.790;2024-02-26T07:33:22;100200.63;;;1.75;84.27
39891;BME280;25564;53.312;9.790;2024-02-26T07:35:53;100197.97;;;1.77;84.01
39891;BME280;25564;53.312;9.790;2024-02-26T07:38:25;100202.91;;;1.80;84.21
39891;BME280;25564;53.312;9.790;2024-02-26T07:41:12;100202.75;;;1.83;84.19
39891;BME280;25564;53.312;9.790;2024-02-26T07:43:43;100205.72;;;1.91;84.59
39891;BME280;25564;53.312;9.790;2024-02-26T07:46:15;100209.63;;;1.98;84.66
39891;BME280;25564;53.312;9.790;2024-02-26T07:48:46;100207.56;;;2.04;84.58
39891;BME280;25564;53.312;9.790;2024-02-26T07:51:18;100216.47;;;2.13;85.28
39891;BME280;25564;53.312;9.790;2024-02-26T07:53:50;100223.50;;;2.25;85.04
39891;BME280;25564;53.312;9.790;2024-02-26T07:56:24;100231.59;;;2.33;84.54
39891;BME280;25564;53.312;9.790;2024-02-26T07:58:55;100231.09;;;2.42;85.19
39891;BME280;25564;53.312;9.790;2024-02-26T08:01:26;100236.53;;;2.52;84.71
39891;BME280;25564;53.312;9.790;2024-02-26T08:03:58;100235.28;;;2.59;84.76
39891;BME280;25564;53.312;9.790;2024-02-26T08:06:30;100241.81;;;2.64;84.27
39891;BME280;25564;53.312;9.790;2024-02-26T08:09:04;100245.75;;;2.70;84.47
39891;BME280;25564;53.312;9.790;2024-02-26T08:11:36;100248.78;;;2.76;84.94
39891;BME280;25564;53.312;9.790;2024-02-26T08:14:07;100244.16;;;2.83;84.31
39891;BME280;25564;53.312;9.790;2024-02-26T08:16:39;100251.50;;;2.89;84.67
39891;BME280;25564;53.312;9.790;2024-02-26T08:19:10;100244.66;;;2.89;84.39
39891;BME280;25564;53.312;9.790;2024-02-26T08:21:44;100249.63;;;2.92;84.46
39891;BME280;25564;53.312;9.790;2024-02-26T08:24:16;100244.50;;;2.92;84.50
39891;BME280;25564;53.312;9.790;2024-02-26T08:26:48;100252.91;;;2.94;84.34
39891;BME280;25564;53.312;9.790;2024-02-26T08:29:19;100244.94;;;2.99;84.30
39891;BME280;25564;53.312;9.790;2024-02-26T08:31:51;100247.09;;;3.06;84.45
39891;BME280;25564;53.312;9.790;2024-02-26T08:34:22;100252.59;;;3.14;85.02
39891;BME280;25564;53.312;9.790;2024-02-26T08:36:54;100250.50;;;3.21;84.38
39891;BME280;25564;53.312;9.790;2024-02-26T08:39:26;100251.50;;;3.19;84.34
39891;BME280;25564;53.312;9.790;2024-02-26T08:41:57;100260.03;;;3.19;84.71
39891;BME280;25564;53.312;9.790;2024-02-26T08:44:29;100261.59;;;3.22;84.45
39891;BME280;25564;53.312;9.790;2024-02-26T08:47:00;100259.78;;;3.24;84.74
39891;BME280;25564;53.312;9.790;2024-02-26T08:49:32;100262.88;;;3.29;84.55
39891;BME280;25564;53.312;9.790;2024-02-26T08:52:04;100260.06;;;3.33;84.43
39891;BME280;25564;53.312;9.790;2024-02-26T08:54:35;100269.88;;;3.41;84.74
39891;BME280;25564;53.312;9.790;2024-02-26T08:57:07;100265.53;;;3.43;84.75
39891;BME280;25564;53.312;9.790;2024-02-26T08:59:38;100275.22;;;3.52;84.77
39891;BME280;25564;53.312;9.790;2024-02-26T09:02:10;100269.56;;;3.61;84.31
39891;BME280;25564;53.312;9.790;2024-02-26T09:04:42;100258.94;;;3.67;84.94
39891;BME280;25564;53.312;9.790;2024-02-26T09:07:13;100265.53;;;3.71;84.61
39891;BME280;25564;53.312;9.790;2024-02-26T09:09:45;100265.06;;;3.78;84.91
39891;BME280;25564;53.312;9.790;2024-02-26T09:12:16;100263.91;;;3.84;84.99
39891;BME280;25564;53.312;9.790;2024-02-26T09:14:48;100265.09;;;3.93;84.80
39891;BME280;25564;53.312;9.790;2024-02-26T09:17:20;100271.50;;;4.00;84.67
39891;BME280;25564;53.312;9.790;2024-02-26T09:19:51;100278.53;;;4.10;84.39
39891;BME280;25564;53.312;9.790;2024-02-26T09:22:23;100276.44;;;4.17;85.29
39891;BME280;25564;53.312;9.790;2024-02-26T09:24:54;100276.88;;;4.23;84.60
39891;BME280;25564;53.312;9.790;2024-02-26T09:27:25;100284.03;;;4.32;84.66
39891;BME280;25564;53.312;9.790;2024-02-26T09:29:57;100286.94;;;4.40;84.57
39891;BME280;25564;53.312;9.790;2024-02-26T09:32:28;100283.91;;;4.48;84.71
39891;BME280;25564;53.312;9.790;2024-02-26T09:35:01;100283.63;;;4.52;84.61
39891;BME280;25564;53.312;9.790;2024-02-26T09:37:33;100290.03;;;4.59;84.90
39891;BME280;25564;53.312;9.790;2024-02-26T09:40:05;100295.91;;;4.61;84.94
39891;BME280;25564;53.312;9.790;2024-02-26T09:42:43;100290.25;;;4.69;84.42
39891;BME280;25564;53.312;9.790;2024-02-26T09:45:18;100299.44;;;4.73;84.80
39891;BME280;25564;53.312;9.790;2024-02-26T09:47:51;100298.41;;;4.76;84.30
39891;BME280;25564;53.312;9.790;2024-02-26T09:50:24;100300.59;;;4.82;84.79
39891;BME280;25564;53.312;9.790;2024-02-26T09:52:56;100299.47;;;4.86;84.33
39891;BME280;25564;53.312;9.790;2024-02-26T09:55:28;100312.66;;;4.94;84.60
39891;BME280;25564;53.312;9.790;2024-02-26T09:58:00;100308.78;;;5.01;84.78
39891;BME280;25564;53.312;9.790;2024-02-26T10:00:32;100320.34;;;5.08;84.00
39891;BME280;25564;53.312;9.790;2024-02-26T10:03:09;100309.75;;;5.12;84.01
39891;BME280;25564;53.312;9.790;2024-02-26T10:05:42;100316.44;;;5.15;84.37
39891;BME280;25564;53.312;9.790;2024-02-26T10:08:17;100311.00;;;5.19;84.27
39891;BME280;25564;53.312;9.790;2024-02-26T10:10:50;100319.16;;;5.26;83.97
39891;BME280;25564;53.312;9.790;2024-02-26T10:13:22;100319.59;;;5.32;84.18
39891;BME280;25564;53.312;9.790;2024-02-26T10:15:54;100325.34;;;5.36;84.42
39891;BME280;25564;53.312;9.790;2024-02-26T10:18:26;100322.88;;;5.34;83.96
39891;BME280;25564;53.312;9.790;2024-02-26T10:21:01;100319.06;;;5.40;84.45
39891;BME280;25564;53.312;9.790;2024-02-26T10:23:33;100331.53;;;5.46;84.20
39891;BME280;25564;53.312;9.790;2024-02-26T10:26:04;100324.16;;;5.54;84.13
39891;BME280;25564;53.312;9.790;2024-02-26T10:28:36;100335.66;;;5.61;84.00
39891;BME280;25564;53.312;9.790;2024-02-26T10:31:08;100325.78;;;5.55;84.01
39891;BME280;25564;53.312;9.790;2024-02-26T10:33:41;100332.78;;;5.53;83.93
39891;BME280;25564;53.312;9.790;2024-02-26T10:36:14;100332.34;;;5.46;83.48
39891;BME280;25564;53.312;9.790;2024-02-26T10:38:47;100334.81;;;5.48;83.81
39891;BME280;25564;53.312;9.790;2024-02-26T10:41:19;100345.09;;;5.48;83.69
39891;BME280;25564;53.312;9.790;2024-02-26T10:43:50;100345.09;;;5.48;83.58
39891;BME280;25564;53.312;9.790;2024-02-26T10:46:23;100339.06;;;5.49;83.72
39891;BME280;25564;53.312;9.790;2024-02-26T10:48:55;100346.59;;;5.52;83.81
39891;BME280;25564;53.312;9.790;2024-02-26T10:51:29;100344.75;;;5.54;83.61
39891;BME280;25564;53.312;9.790;2024-02-26T10:54:02;100349.47;;;5.60;83.72
39891;BME280;25564;53.312;9.790;2024-02-26T10:56:41;100340.63;;;5.64;83.36
39891;BME280;25564;53.312;9.790;2024-02-26T10:59:14;100348.34;;;5.64;84.00
39891;BME280;25564;53.312;9.790;2024-02-26T11:01:51;100354.69;;;5.59;83.88
39891;BME280;25564;53.312;9.790;2024-02-26T11:04:23;100342.38;;;5.64;84.11
39891;BME280;25564;53.312;9.790;2024-02-26T11:06:58;100342.06;;;5.68;83.76
39891;BME280;25564;53.312;9.790;2024-02-26T11:09:32;100345.94;;;5.75;83.71
39891;BME280;25564;53.312;9.790;2024-02-26T11:12:04;100353.97;;;5.83;83.75
39891;BME280;25564;53.312;9.790;2024-02-26T11:14:43;100351.28;;;5.85;83.83
39891;BME280;25564;53.312;9.790;2024-02-26T11:17:18;100354.16;;;5.93;83.73
39891;BME280;25564;53.312;9.790;2024-02-26T11:19:51;100357.03;;;6.01;83.70
39891;BME280;25564;53.312;9.790;2024-02-26T11:22:24;100363.44;;;6.08;83.31
39891;BME280;25564;53.312;9.790;2024-02-26T11:24:59;100360.63;;;6.11;83.51
39891;BME280;25564;53.312;9.790;2024-02-26T11:27:41;100351.59;;;6.18;83.57
39891;BME280;25564;53.312;9.790;2024-02-26T11:30:15;100352.59;;;6.28;83.59
39891;BME280;25564;53.312;9.790;2024-02-26T11:32:47;100364.84;;;6.37;83.07
39891;BME280;25564;53.312;9.790;2024-02-26T11:35:20;100361.25;;;6.40;83.45
39891;BME280;25564;53.312;9.790;2024-02-26T11:37:55;100364.84;;;6.50;83.27
39891;BME280;25564;53.312;9.790;2024-02-26T11:40:28;100361.84;;;6.56;83.51
39891;BME280;25564;53.312;9.790;2024-02-26T11:42:59;100373.16;;;6.66;83.06
39891;BME280;25564;53.312;9.790;2024-02-26T11:48:12;100358.81;;;6.74;83.04
39891;BME280;25564;53.312;9.790;2024-02-26T11:50:54;100361.25;;;6.76;82.93
39891;BME280;25564;53.312;9.790;2024-02-26T11:58:48;100365.41;;;7.02;82.89
39891;BME280;25564;53.312;9.790;2024-02-26T12:01:46;100369.09;;;7.10;82.56
39891;BME280;25564;53.312;9.790;2024-02-26T12:04:24;100367.34;;;7.11;82.19
39891;BME280;25564;53.312;9.790;2024-02-26T12:07:00;100378.38;;;7.13;82.60
39891;BME280;25564;53.312;9.790;2024-02-26T12:09:42;100376.50;;;7.15;82.35
39891;BME280;25564;53.312;9.790;2024-02-26T12:12:18;100381.44;;;7.18;82.52
39891;BME280;25564;53.312;9.790;2024-02-26T12:14:51;100384.28;;;7.26;82.70
39891;BME280;25564;53.312;9.790;2024-02-26T12:17:24;100387.75;;;7.38;82.42
39891;BME280;25564;53.312;9.790;2024-02-26T12:20:08;100391.19;;;7.49;82.14
39891;BME280;25564;53.312;9.790;2024-02-26T12:22:45;100400.25;;;7.55;82.21
39891;BME280;25564;53.312;9.790;2024-02-26T12:25:21;100396.31;;;7.62;82.47
39891;BME280;25564;53.312;9.790;2024-02-26T12:27:53;100402.34;;;7.73;82.64
39891;BME280;25564;53.312;9.790;2024-02-26T12:30:25;100404.84;;;7.86;82.11
39891;BME280;25564;53.312;9.790;2024-02-26T12:32:58;100409.56;;;7.92;82.02
39891;BME280;25564;53.312;9.790;2024-02-26T12:35:31;100409.22;;;7.97;81.98
39891;BME280;25564;53.312;9.790;2024-02-26T12:38:04;100400.19;;;8.02;82.05
39891;BME280;25564;53.312;9.790;2024-02-26T12:40:35;100408.09;;;8.12;81.98
39891;BME280;25564;53.312;9.790;2024-02-26T12:43:07;100405.25;;;8.15;81.70
39891;BME280;25564;53.312;9.790;2024-02-26T12:45:43;100402.22;;;8.10;81.33
39891;BME280;25564;53.312;9.790;2024-02-26T12:48:19;100420.63;;;8.05;81.75
39891;BME280;25564;53.312;9.790;2024-02-26T12:50:51;100416.25;;;8.06;81.94
39891;BME280;25564;53.312;9.790;2024-02-26T12:53:23;100419.81;;;8.05;81.34
39891;BME280;25564;53.312;9.790;2024-02-26T12:55:55;100418.38;;;8.01;81.83
39891;BME280;25564;53.312;9.790;2024-02-26T12:58:29;100420.47;;;7.96;81.45
39891;BME280;25564;53.312;9.790;2024-02-26T13:01:01;100422.69;;;7.89;81.43
39891;BME280;25564;53.312;9.790;2024-02-26T13:03:34;100432.78;;;7.92;81.57
39891;BME280;25564;53.312;9.790;2024-02-26T13:06:07;100435.16;;;7.95;81.43
39891;BME280;25564;53.312;9.790;2024-02-26T13:08:40;100441.38;;;7.93;81.26
39891;BME280;25564;53.312;9.790;2024-02-26T13:11:11;100450.28;;;7.88;81.00
39891;BME280;25564;53.312;9.790;2024-02-26T13:13:47;100447.22;;;7.83;81.28
39891;BME280;25564;53.312;9.790;2024-02-26T13:16:23;100445.66;;;7.81;80.83
39891;BME280;25564;53.312;9.790;2024-02-26T13:18:55;100459.75;;;7.77;80.93
39891;BME280;25564;53.312;9.790;2024-02-26T13:21:27;100456.78;;;7.70;81.24
39891;BME280;25564;53.312;9.790;2024-02-26T13:23:59;100463.09;;;7.66;80.73
39891;BME280;25564;53.312;9.790;2024-02-26T13:26:31;100452.88;;;7.65;81.16
39891;BME280;25564;53.312;9.790;2024-02-26T13:29:02;100452.69;;;7.68;81.15
39891;BME280;25564;53.312;9.790;2024-02-26T13:31:40;100452.31;;;7.72;81.19
39891;BME280;25564;53.312;9.790;2024-02-26T13:34:25;100453.47;;;7.68;81.11
39891;BME280;25564;53.312;9.790;2024-02-26T13:36:58;100467.81;;;7.72;81.22
39891;BME280;25564;53.312;9.790;2024-02-26T13:39:29;100462.09;;;7.80;81.14